createdAt,value
2023-01-05T00:01:45.795Z,97911.09
2023-01-05T00:04:14.703Z,97905.03
2023-01-05T00:06:43.487Z,97936.16
2023-01-05T00:09:14.856Z,97930.97
2023-01-05T00:12:06.193Z,97923.13
2023-01-05T00:14:57.974Z,97925.72
2023-01-05T00:17:45.160Z,97931.81
2023-01-05T00:20:34.983Z,97905.00
2023-01-05T00:23:03.565Z,97924.03
2023-01-05T00:25:33.957Z,97917.09
2023-01-05T00:28:02.221Z,97912.78
2023-01-05T00:30:33.408Z,97896.34
2023-01-05T00:33:02.942Z,97877.28
2023-01-05T00:35:31.452Z,97876.47
2023-01-05T00:37:59.561Z,97902.38
2023-01-05T00:40:27.797Z,97897.19
2023-01-05T00:42:55.884Z,97899.81
2023-01-05T00:45:24.057Z,97888.56
2023-01-05T00:47:53.972Z,97886.81
2023-01-05T00:50:24.619Z,97892.88
2023-01-05T00:52:52.762Z,97848.81
2023-01-05T00:55:21.065Z,97904.16
2023-01-05T00:57:49.424Z,97904.19
2023-01-05T01:00:19.826Z,97911.97
2023-01-05T01:02:48.305Z,97861.78
2023-01-05T01:05:16.643Z,97829.81
2023-01-05T01:07:46.187Z,97841.03
2023-01-05T01:10:14.397Z,97822.03
2023-01-05T01:12:42.832Z,97910.22
2023-01-05T01:15:11.874Z,97924.06
2023-01-05T01:17:40.053Z,97911.97
2023-01-05T01:20:09.546Z,97904.97
2023-01-05T01:22:37.752Z,97902.41
2023-01-05T01:25:08.160Z,97882.59
2023-01-05T01:27:36.348Z,97908.53
2023-01-05T01:30:05.364Z,97895.53
2023-01-05T01:32:33.528Z,97695.91
2023-01-05T01:35:01.708Z,97901.59
2023-01-05T01:37:29.872Z,97898.97
2023-01-05T01:39:58.054Z,97894.63
2023-01-05T01:42:27.942Z,97879.91
2023-01-05T01:44:59.205Z,97877.34
2023-01-05T01:47:40.032Z,97879.97
2023-01-05T01:50:15.466Z,97867.84
2023-01-05T01:52:45.693Z,97860.06
2023-01-05T01:55:14.822Z,97856.63
2023-01-05T01:57:46.188Z,97857.50
2023-01-05T02:00:15.488Z,97854.88
2023-01-05T02:02:43.725Z,97825.44
2023-01-05T02:05:14.154Z,97828.91
2023-01-05T02:07:47.842Z,97659.59
2023-01-05T02:10:19.897Z,97786.56
2023-01-05T02:13:06.338Z,97818.50
2023-01-05T02:15:45.954Z,97789.97
2023-01-05T02:18:33.851Z,97811.59
2023-01-05T02:21:17.445Z,97808.13
2023-01-05T02:24:21.704Z,97797.75
2023-01-05T02:27:17.970Z,97780.50
2023-01-05T02:30:35.092Z,97790.00
2023-01-05T02:33:13.187Z,97801.25
2023-01-05T02:35:49.153Z,97803.81
2023-01-05T02:38:24.903Z,97782.22
2023-01-05T02:40:59.472Z,97798.66
2023-01-05T02:43:30.069Z,97701.03
2023-01-05T02:45:58.241Z,97801.28
2023-01-05T02:48:28.027Z,97792.59
2023-01-05T02:51:01.714Z,97772.69
2023-01-05T02:53:34.364Z,97770.97
2023-01-05T02:56:08.221Z,97772.69
2023-01-05T02:58:40.464Z,97765.78
2023-01-05T03:01:13.272Z,97768.38
2023-01-05T03:03:46.726Z,97763.19
2023-01-05T03:06:18.943Z,97740.72
2023-01-05T03:08:52.737Z,97729.50
2023-01-05T03:11:38.271Z,97769.28
2023-01-05T03:14:13.863Z,97757.97
2023-01-05T03:16:42.071Z,97767.50
2023-01-05T03:19:31.448Z,97763.16
2023-01-05T03:22:20.275Z,97775.28
2023-01-05T03:25:06.745Z,97757.97
2023-01-05T03:27:53.374Z,97726.03
2023-01-05T03:30:45.024Z,97765.78
2023-01-05T03:33:38.101Z,97723.47
2023-01-05T03:36:10.531Z,97765.81
2023-01-05T03:38:43.181Z,97709.63
2023-01-05T03:41:14.032Z,97756.25
2023-01-05T03:43:43.911Z,97740.72
2023-01-05T03:46:15.392Z,97751.03
2023-01-05T03:48:43.911Z,97745.03
2023-01-05T03:51:14.592Z,97738.97
2023-01-05T03:53:42.772Z,97744.16
2023-01-05T03:56:10.936Z,97737.28
2023-01-05T03:58:39.457Z,97739.03
2023-01-05T04:01:08.705Z,97725.19
2023-01-05T04:03:37.486Z,97666.50
2023-01-05T04:06:05.775Z,97716.50
2023-01-05T04:08:35.501Z,97516.31
2023-01-05T04:11:15.477Z,97714.81
2023-01-05T04:13:44.097Z,97716.50
2023-01-05T04:16:12.828Z,97719.09
2023-01-05T04:18:41.395Z,97710.47
2023-01-05T04:21:09.944Z,97707.88
2023-01-05T04:23:39.598Z,97698.31
2023-01-05T04:26:07.854Z,97662.09
2023-01-05T04:28:36.042Z,97700.91
2023-01-05T04:31:04.339Z,97693.09
2023-01-05T04:33:32.669Z,97692.25
2023-01-05T04:36:00.801Z,97673.31
2023-01-05T04:38:29.039Z,97709.59
2023-01-05T04:40:58.588Z,97701.81
2023-01-05T04:43:26.745Z,97695.78
2023-01-05T04:45:54.890Z,97700.94
2023-01-05T04:48:23.088Z,97702.63
2023-01-05T04:50:54.614Z,97685.34
2023-01-05T04:53:23.827Z,97668.97
2023-01-05T04:55:52.163Z,97682.84
2023-01-05T04:58:22.013Z,97675.97
2023-01-05T05:00:50.967Z,97536.19
2023-01-05T05:03:19.390Z,97666.50
2023-01-05T05:05:47.653Z,97683.78
2023-01-05T05:08:15.779Z,97634.59
2023-01-05T05:10:43.992Z,97681.19
2023-01-05T05:13:12.109Z,97669.94
2023-01-05T05:15:41.706Z,97676.84
2023-01-05T05:18:09.980Z,97681.16
2023-01-05T05:20:39.032Z,97669.94
2023-01-05T05:23:07.221Z,97688.13
2023-01-05T05:25:35.410Z,97685.53
2023-01-05T05:28:03.669Z,97694.19
2023-01-05T05:30:31.901Z,97676.91
2023-01-05T05:33:01.447Z,97658.75
2023-01-05T05:35:29.588Z,97682.06
2023-01-05T05:37:57.798Z,97680.34
2023-01-05T05:40:26.739Z,97681.19
2023-01-05T05:42:54.893Z,97666.50
2023-01-05T05:45:23.065Z,97650.13
2023-01-05T05:47:51.307Z,97662.22
2023-01-05T05:50:20.954Z,97646.66
2023-01-05T05:52:49.281Z,97661.38
2023-01-05T05:55:17.728Z,97666.50
2023-01-05T05:57:45.943Z,97673.44
2023-01-05T06:00:15.371Z,97654.44
2023-01-05T06:02:43.690Z,97654.44
2023-01-05T06:05:12.023Z,97620.75
2023-01-05T06:07:41.645Z,97637.16
2023-01-05T06:10:11.446Z,97638.88
2023-01-05T06:12:39.664Z,97565.53
2023-01-05T06:15:09.245Z,97578.47
2023-01-05T06:17:37.471Z,97629.38
2023-01-05T06:20:07.432Z,97643.19
2023-01-05T06:22:35.599Z,97642.31
2023-01-05T06:25:06.036Z,97615.56
2023-01-05T06:27:34.206Z,97657.91
2023-01-05T06:30:02.421Z,97634.59
2023-01-05T06:32:30.571Z,97650.13
2023-01-05T06:34:58.784Z,97633.69
2023-01-05T06:37:27.012Z,97499.94
2023-01-05T06:39:56.495Z,97646.59
2023-01-05T06:42:26.156Z,97643.97
2023-01-05T06:44:54.447Z,97610.28
2023-01-05T06:47:22.646Z,97631.81
2023-01-05T06:49:50.833Z,97628.34
2023-01-05T06:52:18.993Z,97627.53
2023-01-05T06:54:47.167Z,97617.19
2023-01-05T06:57:15.348Z,97633.59
2023-01-05T06:59:44.937Z,97637.91
2023-01-05T07:02:15.836Z,97586.97
2023-01-05T07:04:44.153Z,97623.25
2023-01-05T07:07:13.549Z,97629.25
2023-01-05T07:09:42.039Z,97552.53
2023-01-05T07:12:20.359Z,97621.44
2023-01-05T07:14:55.706Z,97620.59
2023-01-05T07:17:26.074Z,97614.50
2023-01-05T07:19:54.397Z,97611.03
2023-01-05T07:22:22.923Z,97608.41
2023-01-05T07:24:51.158Z,97611.88
2023-01-05T07:27:19.307Z,97622.13
2023-01-05T07:29:47.454Z,97625.63
2023-01-05T07:32:17.131Z,97611.84
2023-01-05T07:34:54.812Z,97614.44
2023-01-05T07:37:25.069Z,97641.16
2023-01-05T07:39:53.766Z,97564.41
2023-01-05T07:42:22.334Z,97639.41
2023-01-05T07:44:50.572Z,97623.00
2023-01-05T07:47:20.170Z,97603.19
2023-01-05T07:49:48.490Z,97633.31
2023-01-05T07:52:17.914Z,97648.88
2023-01-05T07:54:46.531Z,97639.31
2023-01-05T07:57:14.776Z,97641.03
2023-01-05T07:59:43.099Z,97641.84
2023-01-05T08:02:12.182Z,97644.41
2023-01-05T08:04:41.849Z,97640.91
2023-01-05T08:07:11.696Z,97640.88
2023-01-05T08:09:57.742Z,97647.75
2023-01-05T08:12:26.265Z,97616.63
2023-01-05T08:14:54.500Z,97628.66
2023-01-05T08:17:22.866Z,97650.19
2023-01-05T08:19:52.459Z,97643.28
2023-01-05T08:22:20.668Z,97649.31
2023-01-05T08:24:48.854Z,97644.94
2023-01-05T08:27:17.125Z,97637.00
2023-01-05T08:29:45.364Z,97643.00
2023-01-05T08:32:13.478Z,97640.38
2023-01-05T08:34:41.743Z,97641.19
2023-01-05T08:37:11.722Z,97642.88
2023-01-05T08:39:39.881Z,97653.16
2023-01-05T08:42:08.098Z,97650.41
2023-01-05T08:44:36.587Z,97651.09
2023-01-05T08:47:04.812Z,97617.22
2023-01-05T08:49:32.974Z,97646.34
2023-01-05T08:52:01.138Z,97616.16
2023-01-05T08:54:30.876Z,97647.06
2023-01-05T08:56:59.105Z,97659.91
2023-01-05T08:59:27.333Z,97639.94
2023-01-05T09:01:55.693Z,97652.69
2023-01-05T09:04:23.968Z,97637.16
2023-01-05T09:06:52.157Z,97655.91
2023-01-05T09:09:20.408Z,97479.25
2023-01-05T09:11:50.066Z,97651.28
2023-01-05T09:14:19.011Z,97621.25
2023-01-05T09:17:06.453Z,97626.34
2023-01-05T09:19:35.395Z,97668.47
2023-01-05T09:22:03.913Z,97649.28
2023-01-05T09:24:32.145Z,97659.41
2023-01-05T09:27:01.713Z,97662.91
2023-01-05T09:29:29.903Z,97670.69
2023-01-05T09:31:58.080Z,97677.47
2023-01-05T09:34:26.285Z,97649.50
2023-01-05T09:36:54.444Z,97671.00
2023-01-05T09:39:22.600Z,97665.50
2023-01-05T09:41:54.188Z,97668.91
2023-01-05T09:44:30.462Z,97660.78
2023-01-05T09:47:04.541Z,97639.84
2023-01-05T09:49:35.275Z,97661.16
2023-01-05T09:52:09.305Z,97666.88
2023-01-05T09:54:38.947Z,97667.56
2023-01-05T09:57:14.920Z,97662.03
2023-01-05T09:59:46.549Z,97656.47
2023-01-05T10:02:28.262Z,97638.13
2023-01-05T10:04:57.416Z,97662.28
2023-01-05T10:07:37.509Z,97651.78
2023-01-05T10:10:10.229Z,97655.19
2023-01-05T10:13:02.787Z,97652.34
2023-01-05T10:15:37.010Z,97645.97
2023-01-05T10:18:13.351Z,97637.94
2023-01-05T10:20:52.222Z,97616.31
2023-01-05T10:23:33.592Z,97610.19
2023-01-05T10:26:10.338Z,97626.00
2023-01-05T10:28:46.603Z,97623.00
2023-01-05T10:31:24.718Z,97609.63
2023-01-05T10:34:00.236Z,97573.13
2023-01-05T10:39:56.216Z,97610.84
2023-01-05T10:42:42.109Z,97606.16
2023-01-05T10:45:13.122Z,97597.09
2023-01-05T10:47:45.236Z,97605.41
2023-01-05T10:50:30.030Z,97604.41
2023-01-05T10:52:59.530Z,97600.97
2023-01-05T10:55:29.463Z,97592.97
2023-01-05T10:57:57.684Z,97583.81
2023-01-05T11:00:42.091Z,97587.69
2023-01-05T11:03:16.515Z,97568.69
2023-01-05T11:05:47.796Z,97573.72
2023-01-05T11:08:18.179Z,97571.06
2023-01-05T11:10:57.027Z,97557.47
2023-01-05T11:13:32.099Z,97560.44
2023-01-05T11:16:04.562Z,97549.19
2023-01-05T11:18:37.822Z,97564.78
2023-01-05T11:21:07.810Z,97563.00
2023-01-05T11:23:38.047Z,97505.88
2023-01-05T11:26:28.002Z,97507.63
2023-01-05T11:29:05.174Z,97486.94
2023-01-05T11:31:43.035Z,97562.44
2023-01-05T11:34:37.857Z,97557.31
2023-01-05T11:37:09.278Z,97556.59
2023-01-05T11:39:41.483Z,97554.22
2023-01-05T11:42:20.233Z,97555.09
2023-01-05T11:44:55.082Z,97551.34
2023-01-05T11:47:30.847Z,97564.06
2023-01-05T11:50:08.762Z,97543.13
2023-01-05T11:52:39.230Z,97548.22
2023-01-05T11:55:34.722Z,97544.25
2023-01-05T11:58:16.269Z,97535.66
2023-01-05T12:01:01.088Z,97539.34
2023-01-05T12:04:06.580Z,97530.00
2023-01-05T12:07:05.825Z,97540.84
2023-01-05T12:09:36.273Z,97540.44
2023-01-05T12:12:19.097Z,97532.13
2023-01-05T12:15:02.468Z,97531.44
2023-01-05T12:17:39.831Z,97503.31
2023-01-05T12:20:35.365Z,97527.25
2023-01-05T12:23:29.309Z,97534.28
2023-01-05T12:26:04.657Z,97527.28
2023-01-05T12:30:09.059Z,97531.44
2023-01-05T12:35:24.846Z,97512.53
2023-01-05T12:38:13.469Z,97527.25
2023-01-05T12:40:58.012Z,97486.03
2023-01-05T12:43:39.228Z,97523.81
2023-01-05T12:46:20.965Z,97515.94
2023-01-05T12:48:55.925Z,97513.63
2023-01-05T12:51:29.580Z,97526.53
2023-01-05T12:54:03.302Z,97515.28
2023-01-05T12:56:38.891Z,97522.47
2023-01-05T12:59:15.950Z,97515.38
2023-01-05T13:01:47.714Z,97518.63
2023-01-05T13:04:38.889Z,97328.13
2023-01-05T13:07:12.602Z,97509.06
2023-01-05T13:09:43.350Z,97503.50
2023-01-05T13:12:14.579Z,97506.97
2023-01-05T13:14:52.832Z,97499.19
2023-01-05T13:17:27.439Z,97512.41
2023-01-05T13:20:04.799Z,97508.75
2023-01-05T13:22:37.641Z,97492.28
2023-01-05T13:25:15.581Z,97506.59
2023-01-05T13:27:45.145Z,97485.03
2023-01-05T13:30:24.545Z,97504.81
2023-01-05T13:33:13.040Z,97466.94
2023-01-05T13:35:54.919Z,97507.00
2023-01-05T13:38:55.836Z,97522.78
2023-01-05T13:41:32.472Z,97501.88
2023-01-05T13:44:23.649Z,97512.19
2023-01-05T13:47:14.400Z,97503.72
2023-01-05T13:50:17.545Z,97525.97
2023-01-05T13:53:00.873Z,97536.19
2023-01-05T13:55:30.983Z,97553.69
2023-01-05T13:58:01.178Z,97540.50
2023-01-05T14:00:36.123Z,97537.69
2023-01-05T14:03:08.621Z,97549.56
2023-01-05T14:05:48.084Z,97552.19
2023-01-05T14:08:24.252Z,97534.16
2023-01-05T14:11:16.460Z,97559.00
2023-01-05T14:13:50.939Z,97554.03
2023-01-05T14:16:48.950Z,97579.75
2023-01-05T14:19:25.774Z,97587.69
2023-01-05T14:22:01.836Z,97584.81
2023-01-05T14:24:33.850Z,97591.22
2023-01-05T14:27:05.986Z,97603.28
2023-01-05T14:30:10.408Z,97594.94
2023-01-05T14:32:41.511Z,97587.63
2023-01-05T14:35:21.336Z,97611.06
2023-01-05T14:37:56.581Z,97611.84
2023-01-05T14:40:33.621Z,97617.66
2023-01-05T14:43:06.538Z,97556.22
2023-01-05T14:45:37.202Z,97619.88
2023-01-05T14:48:25.384Z,97630.22
2023-01-05T14:51:23.929Z,97614.81
2023-01-05T14:53:53.988Z,97586.72
2023-01-05T14:56:25.718Z,97630.47
2023-01-05T14:59:16.384Z,97632.56
2023-01-05T15:01:51.509Z,97582.22
2023-01-05T15:04:27.112Z,97622.81
2023-01-05T15:07:15.710Z,97629.09
2023-01-05T15:10:10.367Z,97625.56
2023-01-05T15:13:05.017Z,97612.34
2023-01-05T15:15:48.087Z,97623.06
2023-01-05T15:18:45.351Z,97636.34
2023-01-05T15:21:48.463Z,97647.94
2023-01-05T15:24:49.674Z,97640.19
2023-01-05T15:27:34.586Z,97607.22
2023-01-05T15:30:23.307Z,97656.19
2023-01-05T15:32:58.836Z,97649.28
2023-01-05T15:35:34.702Z,97637.97
2023-01-05T15:38:22.124Z,97572.22
2023-01-05T15:40:52.340Z,97557.94
2023-01-05T15:43:20.886Z,97660.06
2023-01-05T15:45:53.631Z,97664.81
2023-01-05T15:48:28.870Z,97639.28
2023-01-05T15:50:59.627Z,97672.72
2023-01-05T15:53:33.167Z,97656.78
2023-01-05T15:56:02.063Z,97667.03
2023-01-05T15:58:32.702Z,97655.16
2023-01-05T16:01:06.202Z,97662.78
2023-01-05T16:03:37.232Z,97660.41
2023-01-05T16:06:08.954Z,97618.72
2023-01-05T16:08:43.290Z,97671.25
2023-01-05T16:11:15.804Z,97670.53
2023-01-05T16:13:49.924Z,97668.72
2023-01-05T16:16:50.684Z,97673.63
2023-01-05T16:19:17.066Z,97679.47
2023-01-05T16:21:50.458Z,97684.78
2023-01-05T16:24:25.960Z,97684.63
2023-01-05T16:26:54.577Z,97683.88
2023-01-05T16:29:35.169Z,97687.34
2023-01-05T16:32:03.431Z,97699.63
2023-01-05T16:34:33.333Z,97700.47
2023-01-05T16:37:04.128Z,97696.44
2023-01-05T16:39:40.194Z,97705.34
2023-01-05T16:42:40.922Z,97703.84
2023-01-05T16:45:18.970Z,97716.13
2023-01-05T16:47:47.516Z,97727.75
2023-01-05T16:51:00.214Z,97745.13
2023-01-05T16:53:29.021Z,97686.00
2023-01-05T16:56:00.729Z,97749.09
2023-01-05T16:58:37.646Z,97751.63
2023-01-05T17:01:27.331Z,97756.88
2023-01-05T17:03:55.684Z,97701.09
2023-01-05T17:06:28.828Z,97749.16
2023-01-05T17:09:01.287Z,97757.38
2023-01-05T17:11:35.847Z,97769.97
2023-01-05T17:14:05.357Z,97761.47
2023-01-05T17:16:33.987Z,97776.44
2023-01-05T17:19:03.004Z,97743.69
2023-01-05T17:21:33.691Z,97760.19
2023-01-05T17:24:02.797Z,97767.22
2023-01-05T17:26:36.978Z,97689.38
2023-01-05T17:29:07.226Z,97779.38
2023-01-05T17:31:36.164Z,97678.91
2023-01-05T17:34:04.557Z,97781.50
2023-01-05T17:36:35.383Z,97790.22
2023-01-05T17:39:04.709Z,97795.66
2023-01-05T17:44:02.736Z,97785.56
2023-01-05T17:46:33.152Z,97712.69
2023-01-05T17:49:02.187Z,97817.44
2023-01-05T17:51:31.983Z,97817.63
2023-01-05T17:54:00.892Z,97784.13
2023-01-05T17:56:29.195Z,97743.78
2023-01-05T17:58:58.803Z,97834.47
2023-01-05T18:01:27.065Z,97839.72
2023-01-05T18:03:55.214Z,97851.81
2023-01-05T18:06:23.971Z,97699.72
2023-01-05T18:08:52.191Z,97862.31
2023-01-05T18:11:20.345Z,97842.31
2023-01-05T18:13:48.523Z,97843.47
2023-01-05T18:16:18.532Z,97764.44
2023-01-05T18:18:46.835Z,97851.47
2023-01-05T18:21:15.151Z,97852.38
2023-01-05T18:23:43.332Z,97861.88
2023-01-05T18:26:12.298Z,97866.00
2023-01-05T18:28:40.904Z,97872.03
2023-01-05T18:31:13.298Z,97868.63
2023-01-05T18:33:43.562Z,97903.44
2023-01-05T18:36:14.388Z,97879.94
2023-01-05T18:38:43.327Z,97917.91
2023-01-05T18:41:11.987Z,97909.19
2023-01-05T18:43:40.306Z,97922.22
2023-01-05T18:46:08.675Z,97918.78
2023-01-05T18:48:36.919Z,97916.19
2023-01-05T18:51:09.215Z,97922.53
2023-01-05T18:53:39.052Z,97920.72
2023-01-05T18:56:08.410Z,97923.28
2023-01-05T18:58:37.165Z,97918.41
2023-01-05T19:01:09.516Z,97930.28
2023-01-05T19:03:38.309Z,97929.47
2023-01-05T19:06:09.890Z,97940.75
2023-01-05T19:08:38.676Z,97943.38
2023-01-05T19:11:15.478Z,97938.28
2023-01-05T19:13:45.335Z,97923.81
2023-01-05T19:16:15.235Z,97947.09
2023-01-05T19:18:44.028Z,97913.81
2023-01-05T19:21:13.677Z,97947.38
2023-01-05T19:23:41.880Z,97926.72
2023-01-05T19:26:10.367Z,97921.00
2023-01-05T19:28:40.599Z,97936.59
2023-01-05T19:31:10.609Z,97859.22
2023-01-05T19:33:39.718Z,97864.47
2023-01-05T19:36:11.240Z,97953.97
2023-01-05T19:38:41.711Z,97951.44
2023-01-05T19:41:12.570Z,97941.50
2023-01-05T19:43:41.949Z,97725.81
2023-01-05T19:46:13.689Z,97948.16
2023-01-05T19:48:43.265Z,97976.72
2023-01-05T19:51:14.532Z,97977.72
2023-01-05T19:53:45.254Z,97985.63
2023-01-05T19:56:15.385Z,97955.84
2023-01-05T19:58:45.341Z,97985.16
2023-01-05T20:01:15.315Z,97877.28
2023-01-05T20:03:44.967Z,97979.06
2023-01-05T20:06:15.699Z,97981.72
2023-01-05T20:08:50.060Z,97993.75
2023-01-05T20:11:18.261Z,98005.00
2023-01-05T20:13:51.682Z,98004.81
2023-01-05T20:16:20.141Z,98012.81
2023-01-05T20:18:48.612Z,97957.72
2023-01-05T20:21:16.794Z,98011.44
2023-01-05T20:23:46.394Z,97980.53
2023-01-05T20:26:16.459Z,98004.78
2023-01-05T20:28:45.608Z,98026.44
2023-01-05T20:31:18.449Z,97998.06
2023-01-05T20:33:46.643Z,98011.06
2023-01-05T20:36:14.986Z,98029.25
2023-01-05T20:38:43.164Z,97957.72
2023-01-05T20:41:18.475Z,97959.44
2023-01-05T20:43:48.189Z,98028.41
2023-01-05T20:46:18.603Z,98029.31
2023-01-05T20:48:47.096Z,98019.06
2023-01-05T20:51:16.037Z,98044.19
2023-01-05T20:53:44.711Z,98027.00
2023-01-05T20:56:16.199Z,98044.31
2023-01-05T20:58:47.431Z,98040.81
2023-01-05T21:01:16.584Z,97952.91
2023-01-05T21:03:45.810Z,98048.81
2023-01-05T21:06:16.350Z,98057.41
2023-01-05T21:08:48.604Z,97985.00
2023-01-05T21:11:18.183Z,98062.75
2023-01-05T21:13:49.587Z,98056.72
2023-01-05T21:16:19.551Z,97980.06
2023-01-05T21:18:48.632Z,98073.19
2023-01-05T21:21:18.965Z,97920.44
2023-01-05T21:23:48.067Z,98082.16
2023-01-05T21:26:17.020Z,98057.16
2023-01-05T21:28:47.796Z,97981.97
2023-01-05T21:31:18.248Z,98075.28
2023-01-05T21:33:46.598Z,98029.47
2023-01-05T21:36:17.105Z,98034.53
2023-01-05T21:39:02.436Z,97930.97
2023-01-05T21:41:49.412Z,98072.56
2023-01-05T21:44:20.076Z,98072.75
2023-01-05T21:46:49.374Z,98080.81
2023-01-05T21:49:18.188Z,98077.44
2023-01-05T21:52:09.182Z,98091.38
2023-01-05T21:54:54.642Z,98084.41
2023-01-05T21:57:23.962Z,98089.63
2023-01-05T21:59:54.217Z,98088.69
2023-01-05T22:02:22.796Z,98093.06
2023-01-05T22:04:51.024Z,98100.03
2023-01-05T22:07:19.211Z,98099.19
2023-01-05T22:09:47.384Z,98099.19
2023-01-05T22:12:15.537Z,98106.16
2023-01-05T22:14:45.502Z,97990.19
2023-01-05T22:17:15.143Z,98105.22
2023-01-05T22:19:43.250Z,98074.91
2023-01-05T22:22:11.421Z,98079.34
2023-01-05T22:24:39.719Z,98080.97
2023-01-05T22:27:08.410Z,98110.53
2023-01-05T22:29:36.624Z,98102.75
2023-01-05T22:32:05.275Z,97951.56
2023-01-05T22:34:34.932Z,98087.25
2023-01-05T22:37:03.092Z,98108.91
2023-01-05T22:39:31.284Z,98111.47
2023-01-05T22:41:59.402Z,98100.19
2023-01-05T22:44:27.594Z,98112.31
2023-01-05T22:46:55.794Z,98108.78
2023-01-05T22:49:24.024Z,98111.44
2023-01-05T22:51:53.650Z,98109.69
2023-01-05T22:54:22.419Z,98101.03
2023-01-05T22:56:50.752Z,98082.81
2023-01-05T22:59:18.955Z,98114.00
2023-01-05T23:01:47.812Z,98104.47
2023-01-05T23:04:16.802Z,98112.97
2023-01-05T23:06:45.289Z,98112.03
2023-01-05T23:09:18.187Z,98093.06
2023-01-05T23:11:46.982Z,98097.53
2023-01-05T23:14:18.511Z,98115.81
2023-01-05T23:16:47.252Z,98107.19
2023-01-05T23:19:17.074Z,98075.19
2023-01-05T23:21:46.135Z,98114.13
2023-01-05T23:24:15.670Z,98110.66
2023-01-05T23:26:43.828Z,98090.66
2023-01-05T23:29:11.968Z,98089.81
2023-01-05T23:31:40.129Z,98106.25
2023-01-05T23:34:08.202Z,97872.06
2023-01-05T23:36:36.337Z,98091.50
2023-01-05T23:39:04.973Z,98113.13
2023-01-05T23:41:34.753Z,98084.63
2023-01-05T23:44:02.965Z,98096.72
2023-01-05T23:46:31.192Z,97946.41
2023-01-05T23:48:59.346Z,98121.00
2023-01-05T23:51:27.503Z,98128.88
2023-01-05T23:53:55.593Z,98124.56
2023-01-05T23:56:25.338Z,98130.66
2023-01-05T23:58:58.801Z,98133.22
